sensor_id;sensor_type;location;lat;lon;timestamp;P1;durP1;ratioP1;P2;durP2;ratioP2
35835;SDS011;21955;50.580;7.228;2022-11-22T00:02:19;8.25;;;2.40;;
35835;SDS011;21955;50.580;7.228;2022-11-22T00:04:46;8.63;;;2.20;;
35835;SDS011;21955;50.580;7.228;2022-11-22T00:07:13;7.07;;;2.38;;
35835;SDS011;21955;50.580;7.228;2022-11-22T00:09:40;8.70;;;2.40;;
35835;SDS011;21955;50.580;7.228;2022-11-22T00:12:09;5.22;;;2.10;;
35835;SDS011;21955;50.580;7.228;2022-11-22T00:14:36;6.05;;;2.22;;
35835;SDS011;21955;50.580;7.228;2022-11-22T00:17:04;8.00;;;1.90;;
35835;SDS011;21955;50.580;7.228;2022-11-22T00:19:31;8.52;;;2.50;;
35835;SDS011;21955;50.580;7.228;2022-11-22T00:21:59;7.47;;;2.40;;
35835;SDS011;21955;50.580;7.228;2022-11-22T00:24:26;5.47;;;2.08;;
35835;SDS011;21955;50.580;7.228;2022-11-22T00:26:53;6.57;;;2.23;;
35835;SDS011;21955;50.580;7.228;2022-11-22T00:29:22;7.57;;;2.42;;
35835;SDS011;21955;50.580;7.228;2022-11-22T00:31:49;6.28;;;2.03;;
35835;SDS011;21955;50.580;7.228;2022-11-22T00:34:16;6.75;;;2.42;;
35835;SDS011;21955;50.580;7.228;2022-11-22T00:36:43;8.88;;;2.20;;
35835;SDS011;21955;50.580;7.228;2022-11-22T00:39:10;5.53;;;2.10;;
35835;SDS011;21955;50.580;7.228;2022-11-22T00:41:37;4.80;;;2.22;;
35835;SDS011;21955;50.580;7.228;2022-11-22T00:44:04;6.03;;;2.00;;
35835;SDS011;21955;50.580;7.228;2022-11-22T00:46:33;8.27;;;2.20;;
35835;SDS011;21955;50.580;7.228;2022-11-22T00:49:01;7.93;;;2.60;;
35835;SDS011;21955;50.580;7.228;2022-11-22T00:51:28;5.43;;;2.17;;
35835;SDS011;21955;50.580;7.228;2022-11-22T00:53:55;6.53;;;2.10;;
35835;SDS011;21955;50.580;7.228;2022-11-22T00:56:23;6.95;;;2.20;;
35835;SDS011;21955;50.580;7.228;2022-11-22T00:58:50;6.72;;;2.15;;
35835;SDS011;21955;50.580;7.228;2022-11-22T01:01:17;7.03;;;2.10;;
35835;SDS011;21955;50.580;7.228;2022-11-22T01:03:45;5.65;;;2.28;;
35835;SDS011;21955;50.580;7.228;2022-11-22T01:06:12;6.40;;;2.20;;
35835;SDS011;21955;50.580;7.228;2022-11-22T01:08:40;6.82;;;2.17;;
35835;SDS011;21955;50.580;7.228;2022-11-22T01:11:07;6.47;;;2.22;;
35835;SDS011;21955;50.580;7.228;2022-11-22T01:13:34;6.50;;;2.08;;
35835;SDS011;21955;50.580;7.228;2022-11-22T01:16:02;8.13;;;2.03;;
35835;SDS011;21955;50.580;7.228;2022-11-22T01:18:31;5.78;;;2.10;;
35835;SDS011;21955;50.580;7.228;2022-11-22T01:21:00;6.13;;;2.00;;
35835;SDS011;21955;50.580;7.228;2022-11-22T01:23:27;4.40;;;1.60;;
35835;SDS011;21955;50.580;7.228;2022-11-22T01:25:54;5.35;;;1.70;;
35835;SDS011;21955;50.580;7.228;2022-11-22T01:28:22;5.82;;;1.60;;
35835;SDS011;21955;50.580;7.228;2022-11-22T01:30:50;4.97;;;1.85;;
35835;SDS011;21955;50.580;7.228;2022-11-22T01:33:17;3.40;;;1.50;;
35835;SDS011;21955;50.580;7.228;2022-11-22T01:35:44;4.70;;;1.67;;
35835;SDS011;21955;50.580;7.228;2022-11-22T01:38:13;5.88;;;1.60;;
35835;SDS011;21955;50.580;7.228;2022-11-22T01:40:40;3.03;;;1.40;;
35835;SDS011;21955;50.580;7.228;2022-11-22T01:43:10;3.13;;;1.40;;
35835;SDS011;21955;50.580;7.228;2022-11-22T01:45:41;3.30;;;1.20;;
35835;SDS011;21955;50.580;7.228;2022-11-22T01:48:28;5.05;;;1.40;;
35835;SDS011;21955;50.580;7.228;2022-11-22T01:50:58;3.97;;;1.10;;
35835;SDS011;21955;50.580;7.228;2022-11-22T01:53:28;3.50;;;1.30;;
35835;SDS011;21955;50.580;7.228;2022-11-22T01:55:56;2.80;;;1.25;;
35835;SDS011;21955;50.580;7.228;2022-11-22T01:58:24;3.90;;;1.38;;
35835;SDS011;21955;50.580;7.228;2022-11-22T02:00:52;4.63;;;1.20;;
35835;SDS011;21955;50.580;7.228;2022-11-22T02:03:20;2.60;;;1.10;;
35835;SDS011;21955;50.580;7.228;2022-11-22T02:05:48;3.40;;;1.23;;
35835;SDS011;21955;50.580;7.228;2022-11-22T02:08:17;2.30;;;1.23;;
35835;SDS011;21955;50.580;7.228;2022-11-22T02:10:48;3.15;;;1.23;;
35835;SDS011;21955;50.580;7.228;2022-11-22T02:13:16;4.75;;;1.20;;
35835;SDS011;21955;50.580;7.228;2022-11-22T02:15:45;3.72;;;1.48;;
35835;SDS011;21955;50.580;7.228;2022-11-22T02:18:12;4.35;;;1.50;;
35835;SDS011;21955;50.580;7.228;2022-11-22T02:20:39;2.78;;;1.00;;
35835;SDS011;21955;50.580;7.228;2022-11-22T02:23:08;5.27;;;1.20;;
35835;SDS011;21955;50.580;7.228;2022-11-22T02:28:27;2.95;;;1.10;;
35835;SDS011;21955;50.580;7.228;2022-11-22T02:30:54;3.85;;;0.90;;
35835;SDS011;21955;50.580;7.228;2022-11-22T02:33:21;2.92;;;1.00;;
35835;SDS011;21955;50.580;7.228;2022-11-22T02:35:49;2.40;;;0.80;;
35835;SDS011;21955;50.580;7.228;2022-11-22T02:38:17;3.05;;;0.90;;
35835;SDS011;21955;50.580;7.228;2022-11-22T02:40:45;3.42;;;0.98;;
35835;SDS011;21955;50.580;7.228;2022-11-22T02:43:16;2.10;;;0.80;;
35835;SDS011;21955;50.580;7.228;2022-11-22T02:45:45;4.50;;;0.93;;
35835;SDS011;21955;50.580;7.228;2022-11-22T02:48:13;5.03;;;1.10;;
35835;SDS011;21955;50.580;7.228;2022-11-22T02:50:41;6.72;;;1.30;;
35835;SDS011;21955;50.580;7.228;2022-11-22T02:53:08;3.85;;;1.17;;
35835;SDS011;21955;50.580;7.228;2022-11-22T02:55:36;5.07;;;1.20;;
35835;SDS011;21955;50.580;7.228;2022-11-22T02:58:03;3.47;;;1.20;;
35835;SDS011;21955;50.580;7.228;2022-11-22T03:00:31;3.47;;;1.05;;
35835;SDS011;21955;50.580;7.228;2022-11-22T03:02:59;4.28;;;1.08;;
35835;SDS011;21955;50.580;7.228;2022-11-22T03:05:27;4.85;;;1.20;;
35835;SDS011;21955;50.580;7.228;2022-11-22T03:07:54;5.77;;;1.20;;
35835;SDS011;21955;50.580;7.228;2022-11-22T03:10:21;3.28;;;1.30;;
35835;SDS011;21955;50.580;7.228;2022-11-22T03:12:48;6.20;;;1.20;;
35835;SDS011;21955;50.580;7.228;2022-11-22T03:15:15;3.95;;;1.20;;
35835;SDS011;21955;50.580;7.228;2022-11-22T03:17:42;3.58;;;1.40;;
35835;SDS011;21955;50.580;7.228;2022-11-22T03:20:11;4.97;;;1.10;;
35835;SDS011;21955;50.580;7.228;2022-11-22T03:22:38;6.88;;;1.38;;
35835;SDS011;21955;50.580;7.228;2022-11-22T03:25:06;4.22;;;1.20;;
35835;SDS011;21955;50.580;7.228;2022-11-22T03:27:33;6.03;;;1.40;;
35835;SDS011;21955;50.580;7.228;2022-11-22T03:30:00;5.43;;;1.20;;
35835;SDS011;21955;50.580;7.228;2022-11-22T03:32:28;5.15;;;1.30;;
35835;SDS011;21955;50.580;7.228;2022-11-22T03:34:55;3.63;;;1.10;;
35835;SDS011;21955;50.580;7.228;2022-11-22T03:37:23;3.05;;;1.20;;
35835;SDS011;21955;50.580;7.228;2022-11-22T03:39:50;4.93;;;1.30;;
35835;SDS011;21955;50.580;7.228;2022-11-22T03:42:17;3.65;;;1.33;;
35835;SDS011;21955;50.580;7.228;2022-11-22T03:44:44;6.20;;;2.10;;
35835;SDS011;21955;50.580;7.228;2022-11-22T03:47:11;7.25;;;2.25;;
35835;SDS011;21955;50.580;7.228;2022-11-22T03:49:39;8.13;;;2.70;;
35835;SDS011;21955;50.580;7.228;2022-11-22T03:52:06;5.93;;;2.20;;
35835;SDS011;21955;50.580;7.228;2022-11-22T03:54:34;5.93;;;2.03;;
35835;SDS011;21955;50.580;7.228;2022-11-22T03:57:02;3.42;;;1.63;;
35835;SDS011;21955;50.580;7.228;2022-11-22T03:59:29;5.38;;;1.60;;
35835;SDS011;21955;50.580;7.228;2022-11-22T04:01:56;6.18;;;1.63;;
35835;SDS011;21955;50.580;7.228;2022-11-22T04:04:24;6.13;;;1.60;;
35835;SDS011;21955;50.580;7.228;2022-11-22T04:06:52;7.78;;;1.83;;
35835;SDS011;21955;50.580;7.228;2022-11-22T04:09:19;4.00;;;1.53;;
35835;SDS011;21955;50.580;7.228;2022-11-22T04:11:47;8.13;;;1.77;;
35835;SDS011;21955;50.580;7.228;2022-11-22T04:14:14;3.88;;;1.70;;
35835;SDS011;21955;50.580;7.228;2022-11-22T04:16:59;4.18;;;1.90;;
35835;SDS011;21955;50.580;7.228;2022-11-22T04:19:26;5.95;;;1.95;;
35835;SDS011;21955;50.580;7.228;2022-11-22T04:21:53;6.15;;;2.00;;
35835;SDS011;21955;50.580;7.228;2022-11-22T04:24:19;6.32;;;2.33;;
35835;SDS011;21955;50.580;7.228;2022-11-22T04:27:08;6.53;;;2.30;;
35835;SDS011;21955;50.580;7.228;2022-11-22T04:29:35;7.75;;;2.50;;
35835;SDS011;21955;50.580;7.228;2022-11-22T04:32:02;8.00;;;2.72;;
35835;SDS011;21955;50.580;7.228;2022-11-22T04:34:47;8.50;;;2.17;;
35835;SDS011;21955;50.580;7.228;2022-11-22T04:37:14;6.57;;;2.28;;
35835;SDS011;21955;50.580;7.228;2022-11-22T04:39:43;6.45;;;2.22;;
35835;SDS011;21955;50.580;7.228;2022-11-22T04:42:11;8.07;;;2.90;;
35835;SDS011;21955;50.580;7.228;2022-11-22T04:44:56;9.67;;;2.13;;
35835;SDS011;21955;50.580;7.228;2022-11-22T04:47:23;9.05;;;2.20;;
35835;SDS011;21955;50.580;7.228;2022-11-22T04:50:08;7.72;;;2.00;;
35835;SDS011;21955;50.580;7.228;2022-11-22T04:52:51;6.82;;;2.30;;
35835;SDS011;21955;50.580;7.228;2022-11-22T04:55:18;7.38;;;1.80;;
35835;SDS011;21955;50.580;7.228;2022-11-22T04:57:47;7.47;;;1.92;;
35835;SDS011;21955;50.580;7.228;2022-11-22T05:00:14;5.00;;;1.77;;
35835;SDS011;21955;50.580;7.228;2022-11-22T05:02:41;8.15;;;1.83;;
35835;SDS011;21955;50.580;7.228;2022-11-22T05:05:08;5.43;;;1.90;;
35835;SDS011;21955;50.580;7.228;2022-11-22T05:07:36;4.85;;;1.70;;
35835;SDS011;21955;50.580;7.228;2022-11-22T05:10:03;5.20;;;2.13;;
35835;SDS011;21955;50.580;7.228;2022-11-22T05:12:31;7.68;;;2.30;;
35835;SDS011;21955;50.580;7.228;2022-11-22T05:14:59;7.40;;;2.08;;
35835;SDS011;21955;50.580;7.228;2022-11-22T05:17:26;5.82;;;2.08;;
35835;SDS011;21955;50.580;7.228;2022-11-22T05:19:53;8.10;;;2.00;;
35835;SDS011;21955;50.580;7.228;2022-11-22T05:22:20;7.78;;;2.10;;
35835;SDS011;21955;50.580;7.228;2022-11-22T05:25:08;7.90;;;2.13;;
35835;SDS011;21955;50.580;7.228;2022-11-22T05:27:34;7.18;;;2.05;;
35835;SDS011;21955;50.580;7.228;2022-11-22T05:30:03;11.98;;;2.25;;
35835;SDS011;21955;50.580;7.228;2022-11-22T05:32:31;8.32;;;2.10;;
35835;SDS011;21955;50.580;7.228;2022-11-22T05:34:58;5.45;;;2.00;;
35835;SDS011;21955;50.580;7.228;2022-11-22T05:37:25;8.23;;;2.50;;
35835;SDS011;21955;50.580;7.228;2022-11-22T05:39:53;10.32;;;3.00;;
35835;SDS011;21955;50.580;7.228;2022-11-22T05:42:20;8.07;;;2.88;;
35835;SDS011;21955;50.580;7.228;2022-11-22T05:44:47;19.48;;;4.20;;
35835;SDS011;21955;50.580;7.228;2022-11-22T05:47:16;17.07;;;3.97;;
35835;SDS011;21955;50.580;7.228;2022-11-22T05:49:43;16.17;;;3.80;;
35835;SDS011;21955;50.580;7.228;2022-11-22T05:52:10;8.07;;;2.40;;
35835;SDS011;21955;50.580;7.228;2022-11-22T05:54:38;13.45;;;3.10;;
35835;SDS011;21955;50.580;7.228;2022-11-22T05:57:05;11.00;;;3.28;;
35835;SDS011;21955;50.580;7.228;2022-11-22T05:59:32;12.02;;;3.00;;
35835;SDS011;21955;50.580;7.228;2022-11-22T06:01:59;9.80;;;2.60;;
35835;SDS011;21955;50.580;7.228;2022-11-22T06:04:28;9.18;;;2.40;;
35835;SDS011;21955;50.580;7.228;2022-11-22T06:06:55;10.63;;;2.60;;
35835;SDS011;21955;50.580;7.228;2022-11-22T06:09:22;9.20;;;2.22;;
35835;SDS011;21955;50.580;7.228;2022-11-22T06:11:49;10.15;;;2.50;;
35835;SDS011;21955;50.580;7.228;2022-11-22T06:14:16;7.28;;;2.30;;
35835;SDS011;21955;50.580;7.228;2022-11-22T06:16:43;8.20;;;2.25;;
35835;SDS011;21955;50.580;7.228;2022-11-22T06:19:10;9.90;;;2.78;;
35835;SDS011;21955;50.580;7.228;2022-11-22T06:21:39;9.40;;;2.28;;
35835;SDS011;21955;50.580;7.228;2022-11-22T06:24:06;12.65;;;2.63;;
35835;SDS011;21955;50.580;7.228;2022-11-22T06:26:34;11.65;;;2.50;;
35835;SDS011;21955;50.580;7.228;2022-11-22T06:29:01;14.57;;;2.80;;
35835;SDS011;21955;50.580;7.228;2022-11-22T06:31:29;9.73;;;2.37;;
35835;SDS011;21955;50.580;7.228;2022-11-22T06:33:56;13.30;;;2.60;;
35835;SDS011;21955;50.580;7.228;2022-11-22T06:36:26;13.43;;;2.50;;
35835;SDS011;21955;50.580;7.228;2022-11-22T06:38:54;13.50;;;2.80;;
35835;SDS011;21955;50.580;7.228;2022-11-22T06:41:22;9.15;;;2.50;;
35835;SDS011;21955;50.580;7.228;2022-11-22T06:43:50;9.55;;;2.10;;
35835;SDS011;21955;50.580;7.228;2022-11-22T06:46:18;10.45;;;2.53;;
35835;SDS011;21955;50.580;7.228;2022-11-22T06:48:46;12.07;;;2.20;;
35835;SDS011;21955;50.580;7.228;2022-11-22T06:51:14;12.73;;;2.20;;
35835;SDS011;21955;50.580;7.228;2022-11-22T06:53:41;7.13;;;2.13;;
35835;SDS011;21955;50.580;7.228;2022-11-22T06:56:10;9.68;;;2.60;;
35835;SDS011;21955;50.580;7.228;2022-11-22T06:58:38;13.63;;;2.33;;
35835;SDS011;21955;50.580;7.228;2022-11-22T07:01:06;12.70;;;2.55;;
35835;SDS011;21955;50.580;7.228;2022-11-22T07:03:33;16.27;;;2.55;;
35835;SDS011;21955;50.580;7.228;2022-11-22T07:06:00;11.77;;;2.93;;
35835;SDS011;21955;50.580;7.228;2022-11-22T07:08:28;12.85;;;2.78;;
35835;SDS011;21955;50.580;7.228;2022-11-22T07:10:57;10.60;;;2.38;;
35835;SDS011;21955;50.580;7.228;2022-11-22T07:13:28;15.63;;;2.70;;
35835;SDS011;21955;50.580;7.228;2022-11-22T07:15:56;10.25;;;2.55;;
35835;SDS011;21955;50.580;7.228;2022-11-22T07:18:23;12.77;;;2.53;;
35835;SDS011;21955;50.580;7.228;2022-11-22T07:20:58;15.93;;;2.85;;
35835;SDS011;21955;50.580;7.228;2022-11-22T07:23:26;10.32;;;2.22;;
35835;SDS011;21955;50.580;7.228;2022-11-22T07:25:53;13.60;;;2.57;;
35835;SDS011;21955;50.580;7.228;2022-11-22T07:28:20;9.73;;;2.45;;
35835;SDS011;21955;50.580;7.228;2022-11-22T07:30:48;10.53;;;2.70;;
35835;SDS011;21955;50.580;7.228;2022-11-22T07:33:16;11.73;;;2.47;;
35835;SDS011;21955;50.580;7.228;2022-11-22T07:35:43;12.65;;;2.63;;
35835;SDS011;21955;50.580;7.228;2022-11-22T07:38:10;11.35;;;2.67;;
35835;SDS011;21955;50.580;7.228;2022-11-22T07:40:37;15.90;;;2.80;;
35835;SDS011;21955;50.580;7.228;2022-11-22T07:43:04;11.40;;;2.30;;
35835;SDS011;21955;50.580;7.228;2022-11-22T07:45:31;9.90;;;2.30;;
35835;SDS011;21955;50.580;7.228;2022-11-22T07:48:00;12.30;;;2.20;;
35835;SDS011;21955;50.580;7.228;2022-11-22T07:50:27;14.10;;;2.50;;
35835;SDS011;21955;50.580;7.228;2022-11-22T07:52:54;12.88;;;2.22;;
35835;SDS011;21955;50.580;7.228;2022-11-22T07:55:21;15.02;;;2.25;;
35835;SDS011;21955;50.580;7.228;2022-11-22T07:57:49;12.18;;;2.08;;
35835;SDS011;21955;50.580;7.228;2022-11-22T08:00:17;13.18;;;2.40;;
35835;SDS011;21955;50.580;7.228;2022-11-22T08:02:44;15.88;;;2.28;;
35835;SDS011;21955;50.580;7.228;2022-11-22T08:05:16;6.82;;;2.03;;
35835;SDS011;21955;50.580;7.228;2022-11-22T08:07:48;8.98;;;2.08;;
35835;SDS011;21955;50.580;7.228;2022-11-22T08:10:15;12.02;;;2.10;;
35835;SDS011;21955;50.580;7.228;2022-11-22T08:12:43;8.85;;;2.00;;
35835;SDS011;21955;50.580;7.228;2022-11-22T08:15:12;5.70;;;1.83;;
35835;SDS011;21955;50.580;7.228;2022-11-22T08:17:40;8.77;;;1.80;;
35835;SDS011;21955;50.580;7.228;2022-11-22T08:20:07;5.80;;;1.60;;
35835;SDS011;21955;50.580;7.228;2022-11-22T08:22:36;9.03;;;1.70;;
35835;SDS011;21955;50.580;7.228;2022-11-22T08:25:05;11.50;;;2.17;;
35835;SDS011;21955;50.580;7.228;2022-11-22T08:27:36;8.88;;;1.83;;
35835;SDS011;21955;50.580;7.228;2022-11-22T08:30:03;8.45;;;1.85;;
35835;SDS011;21955;50.580;7.228;2022-11-22T08:32:30;9.82;;;1.70;;
35835;SDS011;21955;50.580;7.228;2022-11-22T08:34:58;6.53;;;1.63;;
35835;SDS011;21955;50.580;7.228;2022-11-22T08:37:26;10.70;;;1.90;;
35835;SDS011;21955;50.580;7.228;2022-11-22T08:39:54;8.27;;;2.17;;
35835;SDS011;21955;50.580;7.228;2022-11-22T08:42:22;8.30;;;1.73;;
35835;SDS011;21955;50.580;7.228;2022-11-22T08:44:49;11.00;;;2.22;;
35835;SDS011;21955;50.580;7.228;2022-11-22T08:47:16;9.13;;;2.00;;
35835;SDS011;21955;50.580;7.228;2022-11-22T08:49:44;8.98;;;2.00;;
35835;SDS011;21955;50.580;7.228;2022-11-22T08:52:11;9.57;;;2.63;;
35835;SDS011;21955;50.580;7.228;2022-11-22T08:54:38;11.75;;;2.20;;
35835;SDS011;21955;50.580;7.228;2022-11-22T08:57:07;11.57;;;2.20;;
35835;SDS011;21955;50.580;7.228;2022-11-22T08:59:34;8.70;;;2.03;;
35835;SDS011;21955;50.580;7.228;2022-11-22T09:02:01;8.82;;;2.22;;
35835;SDS011;21955;50.580;7.228;2022-11-22T09:04:29;10.20;;;1.90;;
35835;SDS011;21955;50.580;7.228;2022-11-22T09:06:56;6.45;;;1.70;;
35835;SDS011;21955;50.580;7.228;2022-11-22T09:09:24;8.18;;;1.70;;
35835;SDS011;21955;50.580;7.228;2022-11-22T09:11:52;9.40;;;1.73;;
35835;SDS011;21955;50.580;7.228;2022-11-22T09:14:20;6.93;;;1.65;;
35835;SDS011;21955;50.580;7.228;2022-11-22T09:16:47;8.13;;;1.85;;
35835;SDS011;21955;50.580;7.228;2022-11-22T09:19:14;5.53;;;1.70;;
35835;SDS011;21955;50.580;7.228;2022-11-22T09:21:44;8.30;;;1.65;;
35835;SDS011;21955;50.580;7.228;2022-11-22T09:24:11;6.90;;;1.70;;
35835;SDS011;21955;50.580;7.228;2022-11-22T09:26:38;7.53;;;1.70;;
35835;SDS011;21955;50.580;7.228;2022-11-22T09:29:07;8.83;;;1.80;;
35835;SDS011;21955;50.580;7.228;2022-11-22T09:31:35;10.15;;;1.52;;
35835;SDS011;21955;50.580;7.228;2022-11-22T09:34:03;11.33;;;1.87;;
35835;SDS011;21955;50.580;7.228;2022-11-22T09:36:30;5.97;;;1.30;;
35835;SDS011;21955;50.580;7.228;2022-11-22T09:38:58;7.50;;;1.60;;
35835;SDS011;21955;50.580;7.228;2022-11-22T09:41:33;9.98;;;1.60;;
35835;SDS011;21955;50.580;7.228;2022-11-22T09:44:09;7.50;;;1.80;;
35835;SDS011;21955;50.580;7.228;2022-11-22T09:46:43;6.28;;;1.40;;
35835;SDS011;21955;50.580;7.228;2022-11-22T09:49:25;8.32;;;1.73;;
35835;SDS011;21955;50.580;7.228;2022-11-22T09:51:54;7.15;;;1.70;;
35835;SDS011;21955;50.580;7.228;2022-11-22T09:54:24;11.60;;;1.80;;
35835;SDS011;21955;50.580;7.228;2022-11-22T09:56:53;11.00;;;1.60;;
35835;SDS011;21955;50.580;7.228;2022-11-22T09:59:21;9.93;;;1.52;;
35835;SDS011;21955;50.580;7.228;2022-11-22T10:01:52;9.02;;;1.70;;
35835;SDS011;21955;50.580;7.228;2022-11-22T10:04:23;10.68;;;1.48;;
35835;SDS011;21955;50.580;7.228;2022-11-22T10:06:53;7.37;;;1.50;;
35835;SDS011;21955;50.580;7.228;2022-11-22T10:09:24;7.22;;;1.60;;
35835;SDS011;21955;50.580;7.228;2022-11-22T10:11:56;7.10;;;1.40;;
35835;SDS011;21955;50.580;7.228;2022-11-22T10:14:28;7.13;;;1.55;;
35835;SDS011;21955;50.580;7.228;2022-11-22T10:16:58;10.00;;;2.03;;
35835;SDS011;21955;50.580;7.228;2022-11-22T10:19:28;11.05;;;1.88;;
35835;SDS011;21955;50.580;7.228;2022-11-22T10:22:00;7.88;;;1.80;;
35835;SDS011;21955;50.580;7.228;2022-11-22T10:24:27;8.07;;;2.00;;
35835;SDS011;21955;50.580;7.228;2022-11-22T10:26:55;6.28;;;1.40;;
35835;SDS011;21955;50.580;7.228;2022-11-22T10:29:25;6.30;;;1.30;;
35835;SDS011;21955;50.580;7.228;2022-11-22T10:31:58;9.90;;;1.70;;
35835;SDS011;21955;50.580;7.228;2022-11-22T10:34:33;7.15;;;1.60;;
35835;SDS011;21955;50.580;7.228;2022-11-22T10:37:04;7.65;;;1.67;;
35835;SDS011;21955;50.580;7.228;2022-11-22T10:42:25;8.57;;;1.53;;
35835;SDS011;21955;50.580;7.228;2022-11-22T10:44:59;8.02;;;1.65;;
35835;SDS011;21955;50.580;7.228;2022-11-22T10:47:39;7.77;;;1.67;;
35835;SDS011;21955;50.580;7.228;2022-11-22T10:50:10;6.50;;;1.80;;
35835;SDS011;21955;50.580;7.228;2022-11-22T10:52:42;6.45;;;1.48;;
35835;SDS011;21955;50.580;7.228;2022-11-22T10:55:15;6.80;;;1.35;;
35835;SDS011;21955;50.580;7.228;2022-11-22T10:57:46;6.65;;;1.40;;
35835;SDS011;21955;50.580;7.228;2022-11-22T11:00:17;7.10;;;1.35;;
35835;SDS011;21955;50.580;7.228;2022-11-22T11:02:52;8.38;;;1.60;;
35835;SDS011;21955;50.580;7.228;2022-11-22T11:05:24;9.37;;;1.60;;
35835;SDS011;21955;50.580;7.228;2022-11-22T11:07:54;6.40;;;1.30;;
35835;SDS011;21955;50.580;7.228;2022-11-22T11:10:21;4.88;;;1.35;;
35835;SDS011;21955;50.580;7.228;2022-11-22T11:12:50;5.07;;;1.30;;
35835;SDS011;21955;50.580;7.228;2022-11-22T11:15:22;7.85;;;1.50;;
35835;SDS011;21955;50.580;7.228;2022-11-22T11:17:52;4.60;;;1.30;;
35835;SDS011;21955;50.580;7.228;2022-11-22T11:20:21;4.70;;;1.30;;
35835;SDS011;21955;50.580;7.228;2022-11-22T11:22:49;8.30;;;1.30;;
35835;SDS011;21955;50.580;7.228;2022-11-22T11:25:25;5.43;;;1.30;;
35835;SDS011;21955;50.580;7.228;2022-11-22T11:27:53;6.15;;;1.20;;
35835;SDS011;21955;50.580;7.228;2022-11-22T11:30:20;7.53;;;1.20;;
35835;SDS011;21955;50.580;7.228;2022-11-22T11:32:49;4.75;;;1.50;;
35835;SDS011;21955;50.580;7.228;2022-11-22T11:35:18;4.28;;;1.40;;
35835;SDS011;21955;50.580;7.228;2022-11-22T11:37:46;7.38;;;1.88;;
35835;SDS011;21955;50.580;7.228;2022-11-22T11:40:24;3.33;;;1.27;;
35835;SDS011;21955;50.580;7.228;2022-11-22T11:45:34;2.65;;;1.05;;
35835;SDS011;21955;50.580;7.228;2022-11-22T11:48:01;7.53;;;1.33;;
35835;SDS011;21955;50.580;7.228;2022-11-22T11:50:30;5.15;;;1.30;;
35835;SDS011;21955;50.580;7.228;2022-11-22T11:53:01;7.82;;;1.13;;
35835;SDS011;21955;50.580;7.228;2022-11-22T11:55:29;6.25;;;1.10;;
35835;SDS011;21955;50.580;7.228;2022-11-22T11:57:56;4.65;;;1.13;;
35835;SDS011;21955;50.580;7.228;2022-11-22T12:00:24;3.77;;;0.93;;
35835;SDS011;21955;50.580;7.228;2022-11-22T12:02:54;4.22;;;1.00;;
35835;SDS011;21955;50.580;7.228;2022-11-22T12:05:25;3.13;;;1.20;;
35835;SDS011;21955;50.580;7.228;2022-11-22T12:07:53;7.22;;;1.55;;
35835;SDS011;21955;50.580;7.228;2022-11-22T12:10:26;5.57;;;1.35;;
35835;SDS011;21955;50.580;7.228;2022-11-22T12:12:53;6.63;;;1.00;;
35835;SDS011;21955;50.580;7.228;2022-11-22T12:15:24;3.25;;;1.08;;
35835;SDS011;21955;50.580;7.228;2022-11-22T12:17:56;3.87;;;0.87;;
35835;SDS011;21955;50.580;7.228;2022-11-22T12:20:28;2.90;;;0.93;;
35835;SDS011;21955;50.580;7.228;2022-11-22T12:23:15;4.20;;;0.98;;
35835;SDS011;21955;50.580;7.228;2022-11-22T12:25:46;4.85;;;1.00;;
35835;SDS011;21955;50.580;7.228;2022-11-22T12:28:16;2.45;;;0.90;;
35835;SDS011;21955;50.580;7.228;2022-11-22T12:30:44;3.33;;;0.90;;
35835;SDS011;21955;50.580;7.228;2022-11-22T12:33:15;5.13;;;1.23;;
35835;SDS011;21955;50.580;7.228;2022-11-22T12:35:43;3.83;;;0.93;;
35835;SDS011;21955;50.580;7.228;2022-11-22T12:38:14;1.15;;;0.55;;
35835;SDS011;21955;50.580;7.228;2022-11-22T12:40:43;2.67;;;0.80;;
35835;SDS011;21955;50.580;7.228;2022-11-22T12:43:13;3.45;;;0.77;;
35835;SDS011;21955;50.580;7.228;2022-11-22T12:45:42;3.80;;;0.90;;
35835;SDS011;21955;50.580;7.228;2022-11-22T12:48:13;2.80;;;0.88;;
35835;SDS011;21955;50.580;7.228;2022-11-22T12:50:42;4.82;;;1.13;;
35835;SDS011;21955;50.580;7.228;2022-11-22T12:53:11;2.30;;;0.75;;
35835;SDS011;21955;50.580;7.228;2022-11-22T12:55:42;5.57;;;0.90;;
35835;SDS011;21955;50.580;7.228;2022-11-22T12:58:14;4.15;;;0.90;;
35835;SDS011;21955;50.580;7.228;2022-11-22T13:00:46;2.67;;;0.73;;
35835;SDS011;21955;50.580;7.228;2022-11-22T13:03:19;3.95;;;1.00;;
35835;SDS011;21955;50.580;7.228;2022-11-22T13:05:47;3.72;;;1.15;;
35835;SDS011;21955;50.580;7.228;2022-11-22T13:08:16;3.03;;;0.63;;
35835;SDS011;21955;50.580;7.228;2022-11-22T13:10:47;3.25;;;0.73;;
35835;SDS011;21955;50.580;7.228;2022-11-22T13:13:19;3.93;;;0.87;;
35835;SDS011;21955;50.580;7.228;2022-11-22T13:15:48;1.98;;;0.75;;
35835;SDS011;21955;50.580;7.228;2022-11-22T13:18:16;3.33;;;0.82;;
35835;SDS011;21955;50.580;7.228;2022-11-22T13:20:46;3.90;;;1.20;;
35835;SDS011;21955;50.580;7.228;2022-11-22T13:23:19;2.78;;;1.10;;
35835;SDS011;21955;50.580;7.228;2022-11-22T13:25:56;3.08;;;0.90;;
35835;SDS011;21955;50.580;7.228;2022-11-22T13:28:25;3.92;;;1.00;;
35835;SDS011;21955;50.580;7.228;2022-11-22T13:31:04;2.55;;;1.00;;
35835;SDS011;21955;50.580;7.228;2022-11-22T13:33:32;1.73;;;0.60;;
35835;SDS011;21955;50.580;7.228;2022-11-22T13:38:45;3.25;;;0.70;;
35835;SDS011;21955;50.580;7.228;2022-11-22T13:41:20;3.37;;;1.07;;
35835;SDS011;21955;50.580;7.228;2022-11-22T13:43:49;2.55;;;0.80;;
35835;SDS011;21955;50.580;7.228;2022-11-22T13:49:06;2.13;;;0.80;;
35835;SDS011;21955;50.580;7.228;2022-11-22T13:51:53;2.60;;;0.90;;
35835;SDS011;21955;50.580;7.228;2022-11-22T13:59:59;2.25;;;0.60;;
35835;SDS011;21955;50.580;7.228;2022-11-22T14:02:46;2.53;;;0.90;;
35835;SDS011;21955;50.580;7.228;2022-11-22T14:05:16;5.68;;;1.20;;
35835;SDS011;21955;50.580;7.228;2022-11-22T14:07:44;2.67;;;1.02;;
35835;SDS011;21955;50.580;7.228;2022-11-22T14:10:23;2.47;;;0.85;;
35835;SDS011;21955;50.580;7.228;2022-11-22T14:13:07;4.47;;;0.90;;
35835;SDS011;21955;50.580;7.228;2022-11-22T14:21:06;1.55;;;0.50;;
35835;SDS011;21955;50.580;7.228;2022-11-22T14:23:39;1.70;;;0.80;;
35835;SDS011;21955;50.580;7.228;2022-11-22T14:26:13;1.38;;;0.40;;
35835;SDS011;21955;50.580;7.228;2022-11-22T14:28:51;1.45;;;0.60;;
35835;SDS011;21955;50.580;7.228;2022-11-22T14:31:22;0.93;;;0.40;;
35835;SDS011;21955;50.580;7.228;2022-11-22T14:36:37;0.70;;;0.40;;
35835;SDS011;21955;50.580;7.228;2022-11-22T14:41:46;1.50;;;0.60;;
35835;SDS011;21955;50.580;7.228;2022-11-22T14:44:15;1.23;;;0.63;;
35835;SDS011;21955;50.580;7.228;2022-11-22T14:46:44;1.50;;;0.90;;
35835;SDS011;21955;50.580;7.228;2022-11-22T14:49:13;0.95;;;0.52;;
35835;SDS011;21955;50.580;7.228;2022-11-22T14:51:43;1.33;;;0.50;;
35835;SDS011;21955;50.580;7.228;2022-11-22T14:54:14;2.13;;;0.52;;
35835;SDS011;21955;50.580;7.228;2022-11-22T14:56:43;0.77;;;0.50;;
35835;SDS011;21955;50.580;7.228;2022-11-22T14:59:14;0.75;;;0.50;;
35835;SDS011;21955;50.580;7.228;2022-11-22T15:01:54;1.35;;;0.70;;
35835;SDS011;21955;50.580;7.228;2022-11-22T15:07:18;1.30;;;0.80;;
35835;SDS011;21955;50.580;7.228;2022-11-22T15:10:01;0.95;;;0.50;;
35835;SDS011;21955;50.580;7.228;2022-11-22T15:12:41;1.47;;;0.50;;
35835;SDS011;21955;50.580;7.228;2022-11-22T15:15:24;1.70;;;0.68;;
35835;SDS011;21955;50.580;7.228;2022-11-22T15:17:53;1.30;;;0.90;;
35835;SDS011;21955;50.580;7.228;2022-11-22T15:20:29;2.10;;;0.95;;
35835;SDS011;21955;50.580;7.228;2022-11-22T15:23:01;1.67;;;0.80;;
35835;SDS011;21955;50.580;7.228;2022-11-22T15:25:30;1.17;;;0.70;;
35835;SDS011;21955;50.580;7.228;2022-11-22T15:27:57;1.33;;;0.70;;
35835;SDS011;21955;50.580;7.228;2022-11-22T15:30:24;0.77;;;0.60;;
35835;SDS011;21955;50.580;7.228;2022-11-22T15:32:52;0.90;;;0.70;;